Terminal Aerodrome Forecast
Issued by NWS

Home | Current Version | Previous Version | Text Only | Print | Product List | Glossary On
Versions: 1 2 3 4 5 6 7 8 9 10 11 12 13 14
625
FTAK31 PAJN 202320
TAFASI
TAF
PASI 202320Z 2100/2124 10008KT P6SM VCSH BKN050 OVC060
      WS015/12030KT=

USA.gov is the U.S. government's official web portal to all federal, state and local government web resources and services.